D. Carlos I — CTHJ — position and weather

sailwx.info

Track history (hours):
 
Tides and Currents Weather Stations Pressure Air Temp Water Temp Dewpoint Dewpoint Depression Visibility Wind Speed Wind Dir Waves Ship Positions

Oceanographic research ship D. Carlos I (Portugal)

Detailed information on ship capabilities available from University of Delaware's Ocean Information Center.

Last reported at 2018-Dec-06 16:07 UTC. Time now 2018-Dec-18 10:52 UTC.
Position N 38°40' W 009°09'.
Warning: this ship's position is 11 days out of date.

Length 69 m; draft 5.6 m.

MMSI: 263144000.

Date/timePositionNaut miles runAvg speedWind from/ knotsBaromVisibWave heightAir tempDewpointWater temp
2018-Dec-06 16:07N 38°40' W 009°09'0 0.0
2018-Dec-06 16:01N 38°40' W 009°09'0 0.0
2018-Dec-06 15:31N 38°40' W 009°09'1 1.2
2018-Dec-06 15:00N 38°41' W 009°08'1 3.0
2018-Dec-06 14:31N 38°42' W 009°10'2 3.2
2018-Dec-06 14:01N 38°42' W 009°08'0 0.3
2018-Dec-06 13:28N 38°42' W 009°07'0 0.0
2018-Dec-06 12:58N 38°42' W 009°07'0 0.0
2018-Dec-06 12:28N 38°42' W 009°07'0 0.0
2018-Dec-06 11:58N 38°42' W 009°07'0 0.0
2018-Dec-06 11:28N 38°42' W 009°07'0 0.0
2018-Dec-06 10:58N 38°42' W 009°07'2 3.4
2018-Dec-06 10:30N 38°42' W 009°09'510.0
2018-Dec-06 10:00N 38°41' W 009°16'1 1.0
2018-Dec-06 09:30N 38°41' W 009°15'4 7.6
2018-Dec-06 09:00N 38°42' W 009°10'  
Track history (hours):
 
Tides and Currents Weather Stations Pressure Air Temp Water Temp Dewpoint Dewpoint Depression Visibility Wind Speed Wind Dir Waves Ship Positions

Oceanographic research ship D. Carlos I (Portugal)

Detailed information on ship capabilities available from University of Delaware's Ocean Information Center.

Last reported at 2018-Dec-06 16:07 UTC. Time now 2018-Dec-18 10:52 UTC.
Position N 38°40' W 009°09'.
Warning: this ship's position is 11 days out of date.

Length 69 m; draft 5.6 m.

MMSI: 263144000.

Date/timePositionNaut miles runAvg speedWind from/ knotsBaromVisibWave heightAir tempDewpointWater temp
2018-Dec-06 16:07N 38°40' W 009°09'0 0.0
2018-Dec-06 16:01N 38°40' W 009°09'0 0.0
2018-Dec-06 15:31N 38°40' W 009°09'1 1.2
2018-Dec-06 15:00N 38°41' W 009°08'1 3.0
2018-Dec-06 14:31N 38°42' W 009°10'2 3.2
2018-Dec-06 14:01N 38°42' W 009°08'0 0.3
2018-Dec-06 13:28N 38°42' W 009°07'0 0.0
2018-Dec-06 12:58N 38°42' W 009°07'0 0.0
2018-Dec-06 12:28N 38°42' W 009°07'0 0.0
2018-Dec-06 11:58N 38°42' W 009°07'0 0.0
2018-Dec-06 11:28N 38°42' W 009°07'0 0.0
2018-Dec-06 10:58N 38°42' W 009°07'2 3.4
2018-Dec-06 10:30N 38°42' W 009°09'510.0
2018-Dec-06 10:00N 38°41' W 009°16'1 1.0
2018-Dec-06 09:30N 38°41' W 009°15'4 7.6
2018-Dec-06 09:00N 38°42' W 009°10'  

Dump ship's entire track history